sensor_id;sensor_type;location;lat;lon;timestamp;temperature;humidity
11538;DHT22;50159;49.426;11.182;2022-10-04T00:03:16;5.50;99.90
11538;DHT22;50159;49.426;11.182;2022-10-04T00:05:54;5.40;99.90
11538;DHT22;50159;49.426;11.182;2022-10-04T00:08:34;5.40;99.90
11538;DHT22;50159;49.426;11.182;2022-10-04T00:14:00;5.30;99.90
11538;DHT22;50159;49.426;11.182;2022-10-04T00:16:34;5.30;99.90
11538;DHT22;50159;49.426;11.182;2022-10-04T00:19:35;5.30;99.90
11538;DHT22;50159;49.426;11.182;2022-10-04T00:24:36;5.20;99.90
11538;DHT22;50159;49.426;11.182;2022-10-04T00:27:24;5.20;99.90
11538;DHT22;50159;49.426;11.182;2022-10-04T00:40:35;5.20;99.90
11538;DHT22;50159;49.426;11.182;2022-10-04T00:43:41;5.10;99.90
11538;DHT22;50159;49.426;11.182;2022-10-04T00:46:17;5.10;99.90
11538;DHT22;50159;49.426;11.182;2022-10-04T00:48:54;5.00;99.90
11538;DHT22;50159;49.426;11.182;2022-10-04T00:51:37;5.00;99.90
11538;DHT22;50159;49.426;11.182;2022-10-04T00:56:57;4.90;99.90
11538;DHT22;50159;49.426;11.182;2022-10-04T00:59:40;4.90;99.90
11538;DHT22;50159;49.426;11.182;2022-10-04T01:02:22;4.80;99.90
11538;DHT22;50159;49.426;11.182;2022-10-04T01:05:07;4.70;99.90
11538;DHT22;50159;49.426;11.182;2022-10-04T01:08:15;4.70;99.90
11538;DHT22;50159;49.426;11.182;2022-10-04T01:11:06;4.70;99.90
11538;DHT22;50159;49.426;11.182;2022-10-04T01:13:44;4.70;99.90
11538;DHT22;50159;49.426;11.182;2022-10-04T01:16:18;4.60;99.90
11538;DHT22;50159;49.426;11.182;2022-10-04T01:18:51;4.60;99.90
11538;DHT22;50159;49.426;11.182;2022-10-04T01:29:04;4.60;99.90
11538;DHT22;50159;49.426;11.182;2022-10-04T01:31:33;4.50;99.90
11538;DHT22;50159;49.426;11.182;2022-10-04T01:34:04;4.50;99.90
11538;DHT22;50159;49.426;11.182;2022-10-04T01:36:33;4.50;99.90
11538;DHT22;50159;49.426;11.182;2022-10-04T01:39:03;4.50;99.90
11538;DHT22;50159;49.426;11.182;2022-10-04T01:44:26;4.40;99.90
11538;DHT22;50159;49.426;11.182;2022-10-04T01:47:00;4.30;99.90
11538;DHT22;50159;49.426;11.182;2022-10-04T01:49:32;4.30;99.90
11538;DHT22;50159;49.426;11.182;2022-10-04T01:52:09;4.30;99.90
11538;DHT22;50159;49.426;11.182;2022-10-04T01:54:46;4.30;99.90
11538;DHT22;50159;49.426;11.182;2022-10-04T01:57:26;4.30;99.90
11538;DHT22;50159;49.426;11.182;2022-10-04T02:00:10;4.30;99.90
11538;DHT22;50159;49.426;11.182;2022-10-04T02:02:57;4.20;99.90
11538;DHT22;50159;49.426;11.182;2022-10-04T02:05:38;4.10;99.90
11538;DHT22;50159;49.426;11.182;2022-10-04T02:08:10;4.10;99.90
11538;DHT22;50159;49.426;11.182;2022-10-04T02:10:44;4.00;99.90
11538;DHT22;50159;49.426;11.182;2022-10-04T02:13:16;4.10;99.90
11538;DHT22;50159;49.426;11.182;2022-10-04T02:15:45;4.10;99.90
11538;DHT22;50159;49.426;11.182;2022-10-04T02:18:19;4.00;99.90
11538;DHT22;50159;49.426;11.182;2022-10-04T02:20:49;4.00;99.90
11538;DHT22;50159;49.426;11.182;2022-10-04T02:23:18;4.00;99.90
11538;DHT22;50159;49.426;11.182;2022-10-04T02:25:46;4.00;99.90
11538;DHT22;50159;49.426;11.182;2022-10-04T02:28:14;4.00;99.90
11538;DHT22;50159;49.426;11.182;2022-10-04T02:30:45;4.00;99.90
11538;DHT22;50159;49.426;11.182;2022-10-04T02:33:41;4.00;99.90
11538;DHT22;50159;49.426;11.182;2022-10-04T02:36:11;4.00;99.90
11538;DHT22;50159;49.426;11.182;2022-10-04T02:38:54;4.00;99.90
11538;DHT22;50159;49.426;11.182;2022-10-04T02:42:11;4.10;99.90
11538;DHT22;50159;49.426;11.182;2022-10-04T02:44:49;4.10;99.90
11538;DHT22;50159;49.426;11.182;2022-10-04T02:47:20;4.10;99.90
11538;DHT22;50159;49.426;11.182;2022-10-04T02:50:06;4.00;99.90
11538;DHT22;50159;49.426;11.182;2022-10-04T02:52:45;4.10;99.90
11538;DHT22;50159;49.426;11.182;2022-10-04T02:55:21;4.10;99.90
11538;DHT22;50159;49.426;11.182;2022-10-04T02:57:49;4.00;99.90
11538;DHT22;50159;49.426;11.182;2022-10-04T03:00:27;4.00;99.90
11538;DHT22;50159;49.426;11.182;2022-10-04T03:03:15;4.00;99.90
11538;DHT22;50159;49.426;11.182;2022-10-04T03:06:03;3.90;99.90
11538;DHT22;50159;49.426;11.182;2022-10-04T03:08:57;3.90;99.90
11538;DHT22;50159;49.426;11.182;2022-10-04T03:11:33;4.00;99.90
11538;DHT22;50159;49.426;11.182;2022-10-04T03:14:05;4.00;99.90
11538;DHT22;50159;49.426;11.182;2022-10-04T03:16:41;4.00;99.90
11538;DHT22;50159;49.426;11.182;2022-10-04T03:19:11;4.10;99.90
11538;DHT22;50159;49.426;11.182;2022-10-04T03:21:43;4.10;99.90
11538;DHT22;50159;49.426;11.182;2022-10-04T03:24:21;4.20;99.90
11538;DHT22;50159;49.426;11.182;2022-10-04T03:26:55;4.20;99.90
11538;DHT22;50159;49.426;11.182;2022-10-04T03:29:26;4.30;99.90
11538;DHT22;50159;49.426;11.182;2022-10-04T03:31:56;4.30;99.90
11538;DHT22;50159;49.426;11.182;2022-10-04T03:34:32;4.30;99.90
11538;DHT22;50159;49.426;11.182;2022-10-04T03:37:05;4.30;99.90
11538;DHT22;50159;49.426;11.182;2022-10-04T03:39:41;4.30;99.90
11538;DHT22;50159;49.426;11.182;2022-10-04T03:42:14;4.90;99.90
11538;DHT22;50159;49.426;11.182;2022-10-04T03:44:45;4.20;99.90
11538;DHT22;50159;49.426;11.182;2022-10-04T03:47:29;4.30;99.90
11538;DHT22;50159;49.426;11.182;2022-10-04T03:50:01;4.20;99.90
11538;DHT22;50159;49.426;11.182;2022-10-04T03:52:34;4.20;99.90
11538;DHT22;50159;49.426;11.182;2022-10-04T03:55:06;4.20;99.90
11538;DHT22;50159;49.426;11.182;2022-10-04T03:57:36;4.20;99.90
11538;DHT22;50159;49.426;11.182;2022-10-04T04:00:04;4.20;99.90
11538;DHT22;50159;49.426;11.182;2022-10-04T04:02:37;4.20;99.90
11538;DHT22;50159;49.426;11.182;2022-10-04T04:08:05;4.30;99.90
11538;DHT22;50159;49.426;11.182;2022-10-04T04:10:42;4.40;99.90
11538;DHT22;50159;49.426;11.182;2022-10-04T04:13:26;4.40;99.90
11538;DHT22;50159;49.426;11.182;2022-10-04T04:16:02;4.40;99.90
11538;DHT22;50159;49.426;11.182;2022-10-04T04:18:35;4.40;99.90
11538;DHT22;50159;49.426;11.182;2022-10-04T04:21:06;4.40;99.90
11538;DHT22;50159;49.426;11.182;2022-10-04T04:23:59;4.40;99.90
11538;DHT22;50159;49.426;11.182;2022-10-04T04:26:41;4.40;99.90
11538;DHT22;50159;49.426;11.182;2022-10-04T04:29:17;4.50;99.90
11538;DHT22;50159;49.426;11.182;2022-10-04T04:32:11;4.50;99.90
11538;DHT22;50159;49.426;11.182;2022-10-04T04:35:02;4.50;99.90
11538;DHT22;50159;49.426;11.182;2022-10-04T04:37:34;4.50;99.90
11538;DHT22;50159;49.426;11.182;2022-10-04T04:40:19;4.50;99.90
11538;DHT22;50159;49.426;11.182;2022-10-04T04:42:50;4.50;99.90
11538;DHT22;50159;49.426;11.182;2022-10-04T04:45:20;4.60;99.90
11538;DHT22;50159;49.426;11.182;2022-10-04T04:47:53;4.60;99.90
11538;DHT22;50159;49.426;11.182;2022-10-04T04:50:29;4.60;99.90
11538;DHT22;50159;49.426;11.182;2022-10-04T04:55:39;4.70;99.90
11538;DHT22;50159;49.426;11.182;2022-10-04T04:58:48;4.70;99.90
11538;DHT22;50159;49.426;11.182;2022-10-04T05:01:43;4.70;99.90
11538;DHT22;50159;49.426;11.182;2022-10-04T05:06:41;4.70;99.90
11538;DHT22;50159;49.426;11.182;2022-10-04T05:09:34;4.70;99.90
11538;DHT22;50159;49.426;11.182;2022-10-04T05:14:47;4.70;99.90
11538;DHT22;50159;49.426;11.182;2022-10-04T05:17:23;4.80;99.90
11538;DHT22;50159;49.426;11.182;2022-10-04T05:19:56;4.70;99.90
11538;DHT22;50159;49.426;11.182;2022-10-04T05:22:25;4.80;99.90
11538;DHT22;50159;49.426;11.182;2022-10-04T05:25:00;4.80;99.90
11538;DHT22;50159;49.426;11.182;2022-10-04T05:27:39;4.90;99.90
11538;DHT22;50159;49.426;11.182;2022-10-04T05:30:26;4.90;99.90
11538;DHT22;50159;49.426;11.182;2022-10-04T05:33:09;4.90;99.90
11538;DHT22;50159;49.426;11.182;2022-10-04T05:38:57;4.90;99.90
11538;DHT22;50159;49.426;11.182;2022-10-04T05:42:11;5.00;99.90
11538;DHT22;50159;49.426;11.182;2022-10-04T05:44:54;5.00;99.90
11538;DHT22;50159;49.426;11.182;2022-10-04T05:47:26;5.10;99.90
11538;DHT22;50159;49.426;11.182;2022-10-04T05:49:56;5.20;99.90
11538;DHT22;50159;49.426;11.182;2022-10-04T05:52:32;5.20;99.90
11538;DHT22;50159;49.426;11.182;2022-10-04T06:17:02;5.50;99.90
11538;DHT22;50159;49.426;11.182;2022-10-04T06:20:23;5.60;99.90
11538;DHT22;50159;49.426;11.182;2022-10-04T06:22:50;5.70;99.90
11538;DHT22;50159;49.426;11.182;2022-10-04T06:25:35;5.70;99.90
11538;DHT22;50159;49.426;11.182;2022-10-04T06:39:58;5.90;99.90
11538;DHT22;50159;49.426;11.182;2022-10-04T06:46:04;6.00;99.90
11538;DHT22;50159;49.426;11.182;2022-10-04T06:51:39;6.10;99.90
11538;DHT22;50159;49.426;11.182;2022-10-04T06:54:16;6.10;99.90
11538;DHT22;50159;49.426;11.182;2022-10-04T07:00:07;6.40;99.90
11538;DHT22;50159;49.426;11.182;2022-10-04T07:08:40;6.70;99.90
11538;DHT22;50159;49.426;11.182;2022-10-04T07:14:16;6.90;99.90
11538;DHT22;50159;49.426;11.182;2022-10-04T07:19:47;7.00;99.90
11538;DHT22;50159;49.426;11.182;2022-10-04T07:22:28;7.10;99.90
11538;DHT22;50159;49.426;11.182;2022-10-04T07:31:13;7.60;99.90
11538;DHT22;50159;49.426;11.182;2022-10-04T07:33:56;7.80;99.90
11538;DHT22;50159;49.426;11.182;2022-10-04T07:39:44;8.10;99.90
11538;DHT22;50159;49.426;11.182;2022-10-04T07:42:29;8.20;99.90
11538;DHT22;50159;49.426;11.182;2022-10-04T07:48:14;8.50;99.90
11538;DHT22;50159;49.426;11.182;2022-10-04T07:53:41;8.80;99.90
11538;DHT22;50159;49.426;11.182;2022-10-04T07:56:25;8.90;99.90
11538;DHT22;50159;49.426;11.182;2022-10-04T08:01:58;9.20;99.90
11538;DHT22;50159;49.426;11.182;2022-10-04T08:07:58;9.70;99.90
11538;DHT22;50159;49.426;11.182;2022-10-04T08:13:45;10.00;99.90
11538;DHT22;50159;49.426;11.182;2022-10-04T08:22:06;10.40;99.90
11538;DHT22;50159;49.426;11.182;2022-10-04T08:27:59;10.70;99.90
11538;DHT22;50159;49.426;11.182;2022-10-04T08:39:22;11.00;99.90
11538;DHT22;50159;49.426;11.182;2022-10-04T08:45:23;11.20;99.90
11538;DHT22;50159;49.426;11.182;2022-10-04T08:48:31;11.40;99.90
11538;DHT22;50159;49.426;11.182;2022-10-04T09:12:59;12.90;99.90
11538;DHT22;50159;49.426;11.182;2022-10-04T09:15:53;12.90;99.90
11538;DHT22;50159;49.426;11.182;2022-10-04T09:27:44;13.10;99.90
11538;DHT22;50159;49.426;11.182;2022-10-04T09:30:51;13.10;99.90
11538;DHT22;50159;49.426;11.182;2022-10-04T09:39:59;13.20;99.90
11538;DHT22;50159;49.426;11.182;2022-10-04T09:46:17;13.60;99.90
11538;DHT22;50159;49.426;11.182;2022-10-04T09:49:28;13.60;99.90
11538;DHT22;50159;49.426;11.182;2022-10-04T09:52:28;13.80;99.90
11538;DHT22;50159;49.426;11.182;2022-10-04T09:58:23;14.30;99.90
11538;DHT22;50159;49.426;11.182;2022-10-04T10:01:11;14.50;99.90
11538;DHT22;50159;49.426;11.182;2022-10-04T10:04:04;14.60;99.90
11538;DHT22;50159;49.426;11.182;2022-10-04T10:06:55;14.80;99.90
11538;DHT22;50159;49.426;11.182;2022-10-04T10:12:54;15.20;99.90
11538;DHT22;50159;49.426;11.182;2022-10-04T10:16:01;15.50;99.90
11538;DHT22;50159;49.426;11.182;2022-10-04T10:21:48;16.10;98.40
11538;DHT22;50159;49.426;11.182;2022-10-04T10:24:42;16.10;96.40
11538;DHT22;50159;49.426;11.182;2022-10-04T10:30:22;16.20;94.30
11538;DHT22;50159;49.426;11.182;2022-10-04T10:36:23;16.60;93.00
11538;DHT22;50159;49.426;11.182;2022-10-04T10:42:41;17.30;91.30
11538;DHT22;50159;49.426;11.182;2022-10-04T11:04:05;18.30;75.00
11538;DHT22;50159;49.426;11.182;2022-10-04T11:07:19;18.50;72.80
11538;DHT22;50159;49.426;11.182;2022-10-04T11:16:04;18.00;67.90
11538;DHT22;50159;49.426;11.182;2022-10-04T11:19:31;17.90;69.30
11538;DHT22;50159;49.426;11.182;2022-10-04T11:34:43;19.00;64.10
11538;DHT22;50159;49.426;11.182;2022-10-04T11:40:48;19.20;63.90
11538;DHT22;50159;49.426;11.182;2022-10-04T12:01:38;18.30;63.40
11538;DHT22;50159;49.426;11.182;2022-10-04T12:07:37;18.30;64.50
11538;DHT22;50159;49.426;11.182;2022-10-04T12:10:36;18.60;62.70
11538;DHT22;50159;49.426;11.182;2022-10-04T12:13:26;18.70;64.70
11538;DHT22;50159;49.426;11.182;2022-10-04T12:27:59;19.50;61.50
11538;DHT22;50159;49.426;11.182;2022-10-04T12:30:53;19.70;62.70
11538;DHT22;50159;49.426;11.182;2022-10-04T12:34:12;19.90;60.70
11538;DHT22;50159;49.426;11.182;2022-10-04T12:39:48;19.70;59.80
11538;DHT22;50159;49.426;11.182;2022-10-04T12:52:23;19.80;59.30
11538;DHT22;50159;49.426;11.182;2022-10-04T12:55:08;20.10;61.00
11538;DHT22;50159;49.426;11.182;2022-10-04T12:57:59;20.20;58.90
11538;DHT22;50159;49.426;11.182;2022-10-04T13:00:40;20.20;56.40
11538;DHT22;50159;49.426;11.182;2022-10-04T13:06:06;20.30;56.40
11538;DHT22;50159;49.426;11.182;2022-10-04T13:15:43;20.30;55.40
11538;DHT22;50159;49.426;11.182;2022-10-04T13:18:51;20.20;56.80
11538;DHT22;50159;49.426;11.182;2022-10-04T13:22:31;20.20;55.20
11538;DHT22;50159;49.426;11.182;2022-10-04T13:24:51;20.20;58.00
11538;DHT22;50159;49.426;11.182;2022-10-04T13:51:14;20.90;54.80
11538;DHT22;50159;49.426;11.182;2022-10-04T13:53:59;21.30;53.60
11538;DHT22;50159;49.426;11.182;2022-10-04T14:00:08;21.70;53.00
11538;DHT22;50159;49.426;11.182;2022-10-04T14:03:18;22.40;52.50
11538;DHT22;50159;49.426;11.182;2022-10-04T14:06:19;23.70;50.20
11538;DHT22;50159;49.426;11.182;2022-10-04T14:09:35;25.90;46.90
11538;DHT22;50159;49.426;11.182;2022-10-04T14:12:35;27.70;41.70
11538;DHT22;50159;49.426;11.182;2022-10-04T14:27:46;31.10;33.30
11538;DHT22;50159;49.426;11.182;2022-10-04T14:30:30;29.00;34.80
11538;DHT22;50159;49.426;11.182;2022-10-04T14:33:24;26.50;38.10
11538;DHT22;50159;49.426;11.182;2022-10-04T14:39:31;22.70;46.90
11538;DHT22;50159;49.426;11.182;2022-10-04T14:43:33;22.20;47.30
11538;DHT22;50159;49.426;11.182;2022-10-04T14:49:41;26.70;41.10
11538;DHT22;50159;49.426;11.182;2022-10-04T14:52:42;27.70;37.90
11538;DHT22;50159;49.426;11.182;2022-10-04T15:01:22;25.50;40.30
11538;DHT22;50159;49.426;11.182;2022-10-04T15:04:20;23.80;43.40
11538;DHT22;50159;49.426;11.182;2022-10-04T15:07:13;22.40;45.90
11538;DHT22;50159;49.426;11.182;2022-10-04T15:12:54;20.30;51.10
11538;DHT22;50159;49.426;11.182;2022-10-04T15:15:54;19.60;52.30
11538;DHT22;50159;49.426;11.182;2022-10-04T15:26:49;18.30;56.90
11538;DHT22;50159;49.426;11.182;2022-10-04T15:29:32;18.10;57.30
11538;DHT22;50159;49.426;11.182;2022-10-04T15:32:39;17.90;57.80
11538;DHT22;50159;49.426;11.182;2022-10-04T16:02:33;16.60;63.30
11538;DHT22;50159;49.426;11.182;2022-10-04T16:11:46;16.00;66.70
11538;DHT22;50159;49.426;11.182;2022-10-04T16:17:25;15.70;69.50
11538;DHT22;50159;49.426;11.182;2022-10-04T16:20:29;15.60;71.80
11538;DHT22;50159;49.426;11.182;2022-10-04T16:32:45;14.90;84.80
11538;DHT22;50159;49.426;11.182;2022-10-04T16:38:34;14.40;93.30
11538;DHT22;50159;49.426;11.182;2022-10-04T16:41:42;14.30;96.40
11538;DHT22;50159;49.426;11.182;2022-10-04T16:44:31;14.10;99.70
11538;DHT22;50159;49.426;11.182;2022-10-04T16:47:58;13.90;99.90
11538;DHT22;50159;49.426;11.182;2022-10-04T17:15:21;12.60;99.90
11538;DHT22;50159;49.426;11.182;2022-10-04T17:26:15;12.20;99.90
11538;DHT22;50159;49.426;11.182;2022-10-04T17:28:56;12.10;99.90
11538;DHT22;50159;49.426;11.182;2022-10-04T17:32:17;12.00;99.90
11538;DHT22;50159;49.426;11.182;2022-10-04T17:37:55;11.80;99.90
11538;DHT22;50159;49.426;11.182;2022-10-04T17:46:33;11.60;99.90
11538;DHT22;50159;49.426;11.182;2022-10-04T17:49:22;11.40;99.90
11538;DHT22;50159;49.426;11.182;2022-10-04T17:52:33;11.40;99.90
11538;DHT22;50159;49.426;11.182;2022-10-04T17:55:51;11.30;99.90
11538;DHT22;50159;49.426;11.182;2022-10-04T17:58:29;11.20;99.90
11538;DHT22;50159;49.426;11.182;2022-10-04T18:01:25;11.20;99.90
11538;DHT22;50159;49.426;11.182;2022-10-04T18:09:41;10.90;99.90
11538;DHT22;50159;49.426;11.182;2022-10-04T18:12:29;10.80;99.90
11538;DHT22;50159;49.426;11.182;2022-10-04T18:15:19;10.80;99.90
11538;DHT22;50159;49.426;11.182;2022-10-04T18:18:13;10.70;99.90
11538;DHT22;50159;49.426;11.182;2022-10-04T18:23:27;10.60;99.90
11538;DHT22;50159;49.426;11.182;2022-10-04T18:26:11;10.50;99.90
11538;DHT22;50159;49.426;11.182;2022-10-04T18:28:45;10.40;99.90
11538;DHT22;50159;49.426;11.182;2022-10-04T18:31:24;10.40;99.90
11538;DHT22;50159;49.426;11.182;2022-10-04T18:34:28;10.30;99.90
11538;DHT22;50159;49.426;11.182;2022-10-04T18:37:18;10.30;99.90
11538;DHT22;50159;49.426;11.182;2022-10-04T18:39:53;10.20;99.90
11538;DHT22;50159;49.426;11.182;2022-10-04T18:42:29;10.10;99.90
11538;DHT22;50159;49.426;11.182;2022-10-04T18:45:16;10.10;99.90
11538;DHT22;50159;49.426;11.182;2022-10-04T18:47:48;10.00;99.90
11538;DHT22;50159;49.426;11.182;2022-10-04T18:50:38;10.00;99.90
11538;DHT22;50159;49.426;11.182;2022-10-04T18:53:28;10.00;99.90
11538;DHT22;50159;49.426;11.182;2022-10-04T18:56:10;9.90;99.90
11538;DHT22;50159;49.426;11.182;2022-10-04T19:02:09;9.90;99.90
11538;DHT22;50159;49.426;11.182;2022-10-04T19:08:15;9.70;99.90
11538;DHT22;50159;49.426;11.182;2022-10-04T19:11:02;9.70;99.90
11538;DHT22;50159;49.426;11.182;2022-10-04T19:13:44;9.60;99.90
11538;DHT22;50159;49.426;11.182;2022-10-04T19:28:17;9.40;99.90
11538;DHT22;50159;49.426;11.182;2022-10-04T19:34:19;9.30;99.90
11538;DHT22;50159;49.426;11.182;2022-10-04T19:37:04;9.30;99.90
11538;DHT22;50159;49.426;11.182;2022-10-04T19:39:55;9.20;99.90
11538;DHT22;50159;49.426;11.182;2022-10-04T19:42:41;9.20;99.90
11538;DHT22;50159;49.426;11.182;2022-10-04T19:45:24;9.10;99.90
11538;DHT22;50159;49.426;11.182;2022-10-04T19:48:03;9.00;99.90
11538;DHT22;50159;49.426;11.182;2022-10-04T19:50:43;9.00;99.90
11538;DHT22;50159;49.426;11.182;2022-10-04T19:53:25;8.90;99.90
11538;DHT22;50159;49.426;11.182;2022-10-04T19:56:02;8.90;99.90
11538;DHT22;50159;49.426;11.182;2022-10-04T19:58:48;8.90;99.90
11538;DHT22;50159;49.426;11.182;2022-10-04T20:01:26;8.90;99.90
11538;DHT22;50159;49.426;11.182;2022-10-04T20:03:55;8.80;99.90
11538;DHT22;50159;49.426;11.182;2022-10-04T20:06:48;8.70;99.90
11538;DHT22;50159;49.426;11.182;2022-10-04T20:17:53;8.60;99.90
11538;DHT22;50159;49.426;11.182;2022-10-04T20:23:07;8.50;99.90
11538;DHT22;50159;49.426;11.182;2022-10-04T20:25:58;8.50;99.90
11538;DHT22;50159;49.426;11.182;2022-10-04T20:30:54;8.40;99.90
11538;DHT22;50159;49.426;11.182;2022-10-04T20:36:00;8.30;99.90
11538;DHT22;50159;49.426;11.182;2022-10-04T20:38:54;8.30;99.90
11538;DHT22;50159;49.426;11.182;2022-10-04T20:43:55;8.20;99.90
11538;DHT22;50159;49.426;11.182;2022-10-04T20:46:35;8.20;99.90
11538;DHT22;50159;49.426;11.182;2022-10-04T20:49:15;8.20;99.90
11538;DHT22;50159;49.426;11.182;2022-10-04T20:51:47;8.20;99.90
11538;DHT22;50159;49.426;11.182;2022-10-04T20:54:16;8.10;99.90
11538;DHT22;50159;49.426;11.182;2022-10-04T20:56:48;8.10;99.90
11538;DHT22;50159;49.426;11.182;2022-10-04T20:59:17;8.10;99.90
11538;DHT22;50159;49.426;11.182;2022-10-04T21:02:00;8.00;99.90
11538;DHT22;50159;49.426;11.182;2022-10-04T21:04:30;8.00;99.90
11538;DHT22;50159;49.426;11.182;2022-10-04T21:07:00;8.00;99.90
11538;DHT22;50159;49.426;11.182;2022-10-04T21:09:29;7.90;99.90
11538;DHT22;50159;49.426;11.182;2022-10-04T21:11:58;8.80;99.90
11538;DHT22;50159;49.426;11.182;2022-10-04T21:14:36;7.90;99.90
11538;DHT22;50159;49.426;11.182;2022-10-04T21:17:04;7.90;99.90
11538;DHT22;50159;49.426;11.182;2022-10-04T21:19:53;7.90;99.90
11538;DHT22;50159;49.426;11.182;2022-10-04T21:24:56;7.80;99.90
11538;DHT22;50159;49.426;11.182;2022-10-04T21:27:38;7.80;99.90
11538;DHT22;50159;49.426;11.182;2022-10-04T21:30:13;7.70;99.90
11538;DHT22;50159;49.426;11.182;2022-10-04T21:32:42;7.70;99.90
11538;DHT22;50159;49.426;11.182;2022-10-04T21:35:10;7.70;99.90
11538;DHT22;50159;49.426;11.182;2022-10-04T21:37:38;7.70;99.90
11538;DHT22;50159;49.426;11.182;2022-10-04T21:40:05;7.60;99.90
11538;DHT22;50159;49.426;11.182;2022-10-04T21:42:32;7.60;99.90
11538;DHT22;50159;49.426;11.182;2022-10-04T21:44:59;7.60;99.90
11538;DHT22;50159;49.426;11.182;2022-10-04T21:47:26;7.60;99.90
11538;DHT22;50159;49.426;11.182;2022-10-04T21:49:53;7.50;99.90
11538;DHT22;50159;49.426;11.182;2022-10-04T21:52:20;7.50;99.90
11538;DHT22;50159;49.426;11.182;2022-10-04T21:54:47;7.50;99.90
11538;DHT22;50159;49.426;11.182;2022-10-04T21:57:14;7.40;99.90
11538;DHT22;50159;49.426;11.182;2022-10-04T21:59:41;7.40;99.90
11538;DHT22;50159;49.426;11.182;2022-10-04T22:02:07;7.40;99.90
11538;DHT22;50159;49.426;11.182;2022-10-04T22:04:34;7.30;99.90
11538;DHT22;50159;49.426;11.182;2022-10-04T22:07:03;7.30;99.90
11538;DHT22;50159;49.426;11.182;2022-10-04T22:09:30;7.30;99.90
11538;DHT22;50159;49.426;11.182;2022-10-04T22:11:58;7.30;99.90
11538;DHT22;50159;49.426;11.182;2022-10-04T22:14:24;7.20;99.90
11538;DHT22;50159;49.426;11.182;2022-10-04T22:16:51;7.30;99.90
11538;DHT22;50159;49.426;11.182;2022-10-04T22:19:18;7.20;99.90
11538;DHT22;50159;49.426;11.182;2022-10-04T22:21:44;7.20;99.90
11538;DHT22;50159;49.426;11.182;2022-10-04T22:24:16;7.10;99.90
11538;DHT22;50159;49.426;11.182;2022-10-04T22:26:45;7.10;99.90
11538;DHT22;50159;49.426;11.182;2022-10-04T22:29:14;7.10;99.90
11538;DHT22;50159;49.426;11.182;2022-10-04T22:31:48;7.10;99.90
11538;DHT22;50159;49.426;11.182;2022-10-04T22:34:20;7.00;99.90
11538;DHT22;50159;49.426;11.182;2022-10-04T22:36:48;7.00;99.90
11538;DHT22;50159;49.426;11.182;2022-10-04T22:39:18;7.00;99.90
11538;DHT22;50159;49.426;11.182;2022-10-04T22:41:56;7.00;99.90
11538;DHT22;50159;49.426;11.182;2022-10-04T22:44:43;7.00;99.90
11538;DHT22;50159;49.426;11.182;2022-10-04T22:47:12;7.00;99.90
11538;DHT22;50159;49.426;11.182;2022-10-04T22:49:43;7.00;99.90
11538;DHT22;50159;49.426;11.182;2022-10-04T22:52:21;6.90;99.90
11538;DHT22;50159;49.426;11.182;2022-10-04T22:54:51;6.90;99.90
11538;DHT22;50159;49.426;11.182;2022-10-04T22:57:19;6.80;99.90
11538;DHT22;50159;49.426;11.182;2022-10-04T22:59:49;6.80;99.90
11538;DHT22;50159;49.426;11.182;2022-10-04T23:02:22;6.80;99.90
11538;DHT22;50159;49.426;11.182;2022-10-04T23:04:54;6.80;99.90
11538;DHT22;50159;49.426;11.182;2022-10-04T23:07:24;6.80;99.90
11538;DHT22;50159;49.426;11.182;2022-10-04T23:09:51;6.70;99.90
11538;DHT22;50159;49.426;11.182;2022-10-04T23:12:18;6.70;99.90
11538;DHT22;50159;49.426;11.182;2022-10-04T23:14:45;6.60;99.90
11538;DHT22;50159;49.426;11.182;2022-10-04T23:17:24;6.60;99.90
11538;DHT22;50159;49.426;11.182;2022-10-04T23:19:56;6.60;99.90
11538;DHT22;50159;49.426;11.182;2022-10-04T23:22:28;6.60;99.90
11538;DHT22;50159;49.426;11.182;2022-10-04T23:24:56;6.60;99.90
11538;DHT22;50159;49.426;11.182;2022-10-04T23:27:23;6.60;99.90
11538;DHT22;50159;49.426;11.182;2022-10-04T23:30:00;6.50;99.90
11538;DHT22;50159;49.426;11.182;2022-10-04T23:32:30;6.60;99.90
11538;DHT22;50159;49.426;11.182;2022-10-04T23:34:59;6.60;99.90
11538;DHT22;50159;49.426;11.182;2022-10-04T23:37:30;6.60;99.90
11538;DHT22;50159;49.426;11.182;2022-10-04T23:39:58;6.60;99.90
11538;DHT22;50159;49.426;11.182;2022-10-04T23:42:27;6.50;99.90
11538;DHT22;50159;49.426;11.182;2022-10-04T23:44:58;6.50;99.90
11538;DHT22;50159;49.426;11.182;2022-10-04T23:47:32;6.50;99.90
11538;DHT22;50159;49.426;11.182;2022-10-04T23:50:00;6.50;99.90
11538;DHT22;50159;49.426;11.182;2022-10-04T23:52:34;6.50;99.90
11538;DHT22;50159;49.426;11.182;2022-10-04T23:55:18;6.50;99.90
11538;DHT22;50159;49.426;11.182;2022-10-04T23:57:46;6.40;99.90
